This is the latest recevied weather packets stored in our database for station/object VK4JLM-1. If no packets are shown the sender has not sent any weather packets the latest 10 day(s).
| Time | Temp. | Humidity | Pressure | Rain* | Wind** | Luminosity | Snow |
|---|---|---|---|---|---|---|---|
| 1777476731 | 17.22° C | 94% | 1027.8 hPa | 0.25 mm | - | - | - |
| 1777475746 | 17.22° C | 94% | 1027.9 hPa | 0.25 mm | - | - | - |
| 1777474681 | 17.22° C | 93% | 1027.8 hPa | 0.25 mm | - | - | - |
| 1777473711 | 17.22° C | 93% | 1028.4 hPa | 0 mm | - | - | - |
| 1777472746 | 17.78° C | 92% | 1028.2 hPa | 0 mm | - | - | - |
| 1777471561 | 17.22° C | 94% | 1028.2 hPa | 0 mm | - | - | - |
| 1777470493 | 17.78° C | 94% | 1028.5 hPa | 2.29 mm | - | - | - |
| 1777469301 | 17.78° C | 94% | 1028.3 hPa | 2.54 mm | - | - | - |
| 1777468326 | 17.78° C | 93% | 1028.4 hPa | 3.56 mm | - | - | - |
| 1777467226 | 17.78° C | 92% | 1028.5 hPa | 1.02 mm | - | - | - |
| 1777466131 | 17.78° C | 92% | 1028.5 hPa | 1.02 mm | - | - | - |
| 1777465054 | 18.33° C | 91% | 1028.5 hPa | 0.51 mm | - | - | - |
| 1777463896 | 17.78° C | 91% | 1028.2 hPa | 0 mm | - | - | - |
| 1777462721 | 18.33° C | 90% | 1028.3 hPa | 0 mm | - | - | - |
| 1777461741 | 18.33° C | 88% | 1028.2 hPa | 0 mm | - | - | - |
| 1777460576 | 17.78° C | 90% | 1028.1 hPa | 0 mm | - | - | - |
| 1777459436 | 17.78° C | 90% | 1028.1 hPa | 0 mm | - | - | - |
| 1777458431 | 18.33° C | 89% | 1028 hPa | 0.76 mm | - | - | - |
| 1777457446 | 18.33° C | 89% | 1027.9 hPa | 0.76 mm | - | - | - |
| 1777456481 | 18.33° C | 88% | 1027.8 hPa | 0.76 mm | - | - | - |
| 1777455376 | 18.89° C | 86% | 1027.8 hPa | 0.51 mm | - | - | - |
| 1777454351 | 19.44° C | 83% | 1027.3 hPa | 0 mm | - | - | - |
| 1777453231 | 19.44° C | 82% | 1027.2 hPa | 0 mm | - | - | - |
| 1777452151 | 19.44° C | 85% | 1027.2 hPa | 0 mm | - | - | - |
| 1777450006 | 19.44° C | 83% | 1027 hPa | 0 mm | - | - | - |
* Rain latest hour (hover to see other rain measurements)
** Current wind speed in m/s (hover to see current wind gust speed)